Time;durP1;ratioP1;P1;durP2;ratioP2;P2;SDS_P1;SDS_P2;PMS_P1;PMS_P2;Temp;Humidity;BMP_temperature;BMP_pressure;BME280_temperature;BME280_humidity;BME280_pressure;Samples;Min_cycle;Max_cycle;Signal;HPM_P1;HPM_P2
2021/06/23 00:00:57;;;;;;;117.80;76.65;;;;;;;18.67;86.21;97911.84;5025711;28;20899;-65
2021/06/23 00:03:23;;;;;;;155.02;93.05;;;;;;;18.58;86.05;97918.69;5026180;28;20253;-65
2021/06/23 00:05:50;;;;;;;162.77;104.35;;;;;;;18.84;84.30;97921.19;5026351;28;20235;-66
2021/06/23 00:08:16;;;;;;;166.40;102.97;;;;;;;18.86;82.83;97914.81;5027416;28;20595;-65
2021/06/23 00:10:43;;;;;;;166.05;105.22;;;;;;;18.79;83.86;97926.75;5027250;28;20244;-66
2021/06/23 00:13:10;;;;;;;139.88;87.05;;;;;;;19.21;87.29;97926.28;5024597;28;20242;-65
2021/06/23 00:15:38;;;;;;;157.77;99.30;;;;;;;19.22;83.18;97933.22;5027808;28;20248;-65
2021/06/23 00:18:05;;;;;;;155.60;97.38;;;;;;;18.72;83.78;97935.28;5025321;28;20225;-66
2021/06/23 00:20:32;;;;;;;160.85;104.15;;;;;;;18.58;85.06;97934.53;5025992;28;20238;-65
2021/06/23 00:22:59;;;;;;;152.48;95.18;;;;;;;18.50;86.20;97935.06;5026758;28;20243;-66
2021/06/23 00:25:25;;;;;;;153.60;101.60;;;;;;;18.39;87.37;97931.56;5028377;28;20217;-65
2021/06/23 00:27:52;;;;;;;172.65;102.05;;;;;;;18.54;87.75;97934.84;5028366;28;20240;-65
2021/06/23 00:30:20;;;;;;;120.47;68.80;;;;;;;18.47;87.57;97939.75;5031369;28;20589;-66
2021/06/23 00:32:49;;;;;;;152.07;93.97;;;;;;;18.54;87.04;97948.88;5028861;28;20830;-66
2021/06/23 00:35:15;;;;;;;152.95;92.05;;;;;;;18.46;88.24;97956.56;5032334;28;20202;-65
2021/06/23 00:37:42;;;;;;;136.20;87.43;;;;;;;18.16;90.70;97955.22;5032604;28;20250;-65
2021/06/23 00:40:11;;;;;;;158.52;100.30;;;;;;;18.10;90.68;97945.09;5028989;28;20243;-66
2021/06/23 00:42:38;;;;;;;169.10;103.63;;;;;;;18.27;89.56;97946.53;5031898;28;20234;-65
2021/06/23 00:45:06;;;;;;;73.88;22.77;;;;;;;18.93;89.12;97938.97;5033748;28;20316;-66
2021/06/23 00:47:33;;;;;;;75.88;19.25;;;;;;;19.10;86.90;97944.75;5032031;28;20235;-66
2021/06/23 00:50:05;;;;;;;78.07;18.10;;;;;;;19.21;87.03;97948.25;5030233;28;20692;-66
2021/06/23 00:52:32;;;;;;;79.53;20.02;;;;;;;18.90;86.05;97955.06;5031925;28;20246;-66
2021/06/23 00:54:59;;;;;;;80.55;20.50;;;;;;;18.70;87.91;97959.16;5029752;28;20230;-65
2021/06/23 00:57:25;;;;;;;85.40;18.42;;;;;;;19.18;88.06;97953.78;5029191;28;20245;-65
2021/06/23 00:59:52;;;;;;;87.28;21.40;;;;;;;19.09;84.16;97964.22;5029671;28;20234;-66
2021/06/23 01:02:20;;;;;;;79.68;21.73;;;;;;;18.86;85.46;97980.03;5028654;28;20264;-66
2021/06/23 01:04:47;;;;;;;85.80;22.42;;;;;;;18.72;85.76;97982.84;5032817;28;20225;-65
2021/06/23 01:07:15;;;;;;;90.28;23.70;;;;;;;18.27;88.74;97986.13;5029178;28;20241;-65
2021/06/23 01:09:42;;;;;;;83.47;22.48;;;;;;;18.33;87.83;97990.94;5031062;28;20214;-65
2021/06/23 01:12:19;;;;;;;90.22;23.23;;;;;;;18.32;88.69;97980.50;5029822;28;20763;-66
2021/06/23 01:14:46;;;;;;;79.88;21.67;;;;;;;18.29;89.21;97973.66;5030665;28;20240;-65
2021/06/23 01:17:13;;;;;;;92.25;22.52;;;;;;;18.43;90.10;97965.53;5031791;28;20234;-66
2021/06/23 01:19:43;;;;;;;77.75;19.95;;;;;;;18.69;89.71;97966.25;5029897;28;20399;-65
2021/06/23 01:22:11;;;;;;;90.40;22.67;;;;;;;18.68;88.31;97959.28;5028775;28;20241;-66
2021/06/23 01:24:37;;;;;;;86.97;20.65;;;;;;;18.74;89.20;97963.25;5029624;28;20218;-65
2021/06/23 01:27:04;;;;;;;81.20;20.25;;;;;;;18.93;88.90;97959.25;5036447;28;20238;-65
2021/06/23 01:29:31;;;;;;;80.10;19.92;;;;;;;19.41;86.30;97951.19;5030706;28;20215;-65
2021/06/23 01:31:58;;;;;;;87.55;20.67;;;;;;;19.33;86.84;97946.47;5031017;28;20253;-66
2021/06/23 01:34:24;;;;;;;81.10;17.15;;;;;;;19.66;86.82;97944.78;5029548;28;20218;-65
2021/06/23 01:36:51;;;;;;;84.65;18.73;;;;;;;19.50;85.74;97946.94;5027863;28;20238;-66
2021/06/23 01:39:18;;;;;;;90.15;19.88;;;;;;;19.61;86.41;97949.59;5030437;28;20222;-65
2021/06/23 01:41:45;;;;;;;83.95;20.00;;;;;;;19.58;85.52;97955.13;5030266;28;20249;-66
2021/06/23 01:44:12;;;;;;;84.65;22.20;;;;;;;18.73;87.36;97963.38;5031762;28;20219;-65
2021/06/23 01:46:38;;;;;;;87.70;24.33;;;;;;;18.82;87.36;97971.50;5030072;28;20242;-66
2021/06/23 01:49:05;;;;;;;82.53;21.95;;;;;;;18.81;88.25;97976.88;5030820;28;21136;-65
2021/06/23 01:51:31;;;;;;;92.70;23.25;;;;;;;19.24;86.56;97963.03;5029993;28;20258;-65
2021/06/23 01:53:58;;;;;;;87.60;23.08;;;;;;;18.97;86.41;97964.22;5031558;28;20219;-65
2021/06/23 01:56:29;;;;;;;92.32;24.33;;;;;;;18.53;87.71;97965.72;5029394;28;20246;-65
2021/06/23 01:58:55;;;;;;;96.40;24.98;;;;;;;18.27;88.97;97965.84;5028901;28;20218;-65
2021/06/23 02:01:23;;;;;;;81.22;24.50;;;;;;;18.22;91.25;97960.03;5030795;28;20246;-65
2021/06/23 02:04:07;;;;;;;93.55;23.52;;;;;;;18.27;89.96;97959.72;5028736;28;20246;-65
2021/06/23 02:07:03;;;;;;;84.15;23.48;;;;;;;18.18;91.30;97958.59;5028742;28;20242;-66
2021/06/23 02:09:41;;;;;;;75.93;22.45;;;;;;;18.05;90.47;97968.34;5032441;28;20215;-65
2021/06/23 02:12:22;;;;;;;87.63;24.33;;;;;;;18.23;90.95;97964.38;5027475;28;20238;-66
2021/06/23 02:14:51;;;;;;;86.35;23.25;;;;;;;18.18;92.06;97970.91;5032047;28;20210;-66
2021/06/23 02:17:18;;;;;;;87.30;22.00;;;;;;;18.34;92.11;97968.84;5027732;28;20237;-66
2021/06/23 02:19:46;;;;;;;77.80;18.75;;;;;;;19.13;90.13;97949.81;5032025;28;20617;-65
2021/06/23 02:22:15;;;;;;;90.72;22.25;;;;;;;19.16;87.89;97950.41;5030343;28;20238;-65
2021/06/23 02:24:42;;;;;;;83.47;21.45;;;;;;;18.90;87.08;97954.22;5031199;28;20318;-65
2021/06/23 02:27:11;;;;;;;78.57;17.15;;;;;;;19.11;89.03;97955.22;5027757;28;20230;-66
2021/06/23 02:29:38;;;;;;;76.47;17.13;;;;;;;19.82;86.28;97942.63;5029682;28;20221;-66
2021/06/23 02:32:06;;;;;;;77.55;22.13;;;;;;;19.16;86.47;97949.59;5028080;28;20247;-66
2021/06/23 02:34:33;;;;;;;88.35;25.00;;;;;;;18.87;86.61;97950.81;5029754;28;20229;-65
2021/06/23 02:37:00;;;;;;;94.43;24.65;;;;;;;18.21;91.20;97968.91;5030184;28;20231;-65
2021/06/23 02:39:27;;;;;;;87.28;25.02;;;;;;;18.13;91.97;97981.81;5037424;28;20233;-65
2021/06/23 02:41:54;;;;;;;98.82;26.60;;;;;;;17.76;94.29;97976.50;5027460;28;20265;-66
2021/06/23 02:44:22;;;;;;;98.03;28.85;;;;;;;17.64;96.32;97980.00;5029419;28;20990;-65
2021/06/23 02:46:48;;;;;;;102.40;27.02;;;;;;;17.47;97.85;97986.47;5026903;28;20238;-66
2021/06/23 02:49:15;;;;;;;212.68;43.70;;;;;;;17.51;97.01;97980.84;5028397;28;20223;-68
2021/06/23 02:51:42;;;;;;;113.80;24.70;;;;;;;18.53;94.76;97978.06;5025857;28;20241;-65
2021/06/23 02:54:09;;;;;;;78.00;19.67;;;;;;;18.82;91.46;97973.28;5028540;28;20276;-66
2021/06/23 02:56:36;;;;;;;80.72;21.83;;;;;;;18.68;91.99;97975.13;5028938;28;20234;-66
2021/06/23 02:59:04;;;;;;;85.43;22.27;;;;;;;19.08;89.96;97973.97;5029272;28;20233;-65
2021/06/23 03:01:32;;;;;;;104.82;25.65;;;;;;;19.15;88.74;97963.75;5028674;28;20242;-65
2021/06/23 03:03:59;;;;;;;87.18;24.05;;;;;;;18.89;88.21;97974.50;5029622;28;20221;-66
2021/06/23 03:06:25;;;;;;;97.72;26.65;;;;;;;18.58;88.98;97981.19;5027321;28;20758;-65
2021/06/23 03:08:52;;;;;;;86.15;26.10;;;;;;;18.41;89.93;97995.66;5026933;28;20207;-65
2021/06/23 03:11:18;;;;;;;111.10;29.85;;;;;;;17.86;93.92;98011.84;5028429;28;20246;-65
2021/06/23 03:13:45;;;;;;;91.25;27.20;;;;;;;17.90;95.64;98002.78;5028088;28;21270;-65
2021/06/23 03:16:11;;;;;;;91.57;26.02;;;;;;;18.95;92.22;97992.56;5026713;28;20246;-65
2021/06/23 03:18:39;;;;;;;92.03;26.60;;;;;;;18.66;90.00;97992.91;5028465;28;20225;-66
2021/06/23 03:21:07;;;;;;;89.70;29.58;;;;;;;18.43;91.38;97999.84;5028217;28;20249;-65
2021/06/23 03:23:34;;;;;;;85.55;21.83;;;;;;;19.09;90.82;97988.84;5027455;28;20237;-66
2021/06/23 03:26:01;;;;;;;83.32;23.80;;;;;;;19.63;86.78;97974.97;5027973;28;20245;-65
2021/06/23 03:28:28;;;;;;;82.20;24.73;;;;;;;19.41;87.09;97975.81;5028112;28;20202;-66
2021/06/23 03:30:54;;;;;;;98.90;28.17;;;;;;;19.14;87.64;97981.41;5029802;28;20238;-65
2021/06/23 03:33:21;;;;;;;102.55;29.35;;;;;;;18.67;89.71;97989.31;5029264;28;20241;-66
2021/06/23 03:35:49;;;;;;;96.55;28.80;;;;;;;18.99;88.49;97995.81;5029605;28;20241;-65
2021/06/23 03:38:15;;;;;;;100.57;30.77;;;;;;;19.01;88.50;98000.00;5030515;28;20213;-65
2021/06/23 03:40:42;;;;;;;98.57;29.83;;;;;;;18.95;88.71;97996.97;5029554;28;20238;-66
2021/06/23 03:43:08;;;;;;;85.07;25.13;;;;;;;19.85;86.30;97986.56;5029759;28;20234;-66
2021/06/23 03:45:35;;;;;;;92.05;30.27;;;;;;;19.70;85.68;97980.63;5028272;28;20329;-65
2021/06/23 03:48:02;;;;;;;85.82;28.38;;;;;;;19.56;86.41;97971.13;5029535;28;20960;-66
2021/06/23 03:50:29;;;;;;;77.25;25.33;;;;;;;19.79;85.43;97953.44;5029859;28;20238;-65
2021/06/23 03:52:57;;;;;;;83.25;30.90;;;;;;;19.95;84.40;97960.19;5025918;28;20324;-65
2021/06/23 03:55:26;;;;;;;91.30;27.90;;;;;;;20.00;84.89;97964.16;5029343;28;20220;-66
2021/06/23 03:57:54;;;;;;;87.22;31.45;;;;;;;19.96;84.41;97965.38;5029047;28;20222;-65
2021/06/23 04:00:22;;;;;;;103.10;35.38;;;;;;;19.24;86.90;97965.69;5029526;28;20234;-66
2021/06/23 04:02:49;;;;;;;97.18;33.08;;;;;;;18.71;89.41;97975.84;5026485;28;20786;-65
2021/06/23 04:05:16;;;;;;;98.97;29.80;;;;;;;18.59;90.96;97978.47;5029272;28;20402;-65
2021/06/23 04:07:42;;;;;;;87.22;28.00;;;;;;;18.86;89.30;97980.03;5028995;28;20226;-65
2021/06/23 04:10:11;;;;;;;98.95;32.60;;;;;;;18.90;89.26;97992.06;5028120;28;20210;-65
2021/06/23 04:12:38;;;;;;;101.30;37.72;;;;;;;18.88;88.62;97993.97;5029152;28;20234;-65
2021/06/23 04:15:07;;;;;;;92.63;38.65;;;;;;;18.51;90.47;97996.69;5027437;28;20210;-65
2021/06/23 04:17:33;;;;;;;85.90;29.98;;;;;;;18.76;92.29;97993.03;5026875;28;20238;-66
2021/06/23 04:20:00;;;;;;;77.95;29.13;;;;;;;18.93;90.08;97986.56;5027928;28;20202;-65
2021/06/23 04:22:27;;;;;;;102.97;39.97;;;;;;;19.34;87.61;97985.19;5027742;28;20251;-65
2021/06/23 04:24:53;;;;;;;96.25;29.10;;;;;;;19.33;88.29;97983.47;5025572;28;20218;-65
2021/06/23 04:27:22;;;;;;;89.53;26.88;;;;;;;19.34;88.49;97990.47;5028094;28;20760;-65
2021/06/23 04:29:48;;;;;;;86.03;29.23;;;;;;;19.51;87.49;97985.69;5027731;28;20219;-65
2021/06/23 04:32:15;;;;;;;91.35;29.90;;;;;;;19.68;86.14;97982.53;5025596;28;20242;-66
2021/06/23 04:34:41;;;;;;;80.40;30.92;;;;;;;18.81;89.47;97992.75;5028396;28;20241;-65
2021/06/23 04:37:08;;;;;;;91.13;38.33;;;;;;;18.44;92.22;97998.91;5025951;28;20245;-66
2021/06/23 04:39:34;;;;;;;97.20;36.65;;;;;;;18.33;93.42;97992.75;5027796;28;20221;-65
2021/06/23 04:42:01;;;;;;;90.90;32.50;;;;;;;18.32;94.36;97988.41;5028143;28;20276;-66
2021/06/23 04:44:29;;;;;;;88.05;34.42;;;;;;;18.38;93.68;98001.16;5029808;28;20785;-65
2021/06/23 04:46:55;;;;;;;102.85;34.20;;;;;;;18.34;94.99;98004.97;5029136;28;20241;-66
2021/06/23 04:49:22;;;;;;;98.53;33.50;;;;;;;18.30;96.28;98002.53;5026657;28;20218;-65
2021/06/23 04:51:48;;;;;;;119.93;41.00;;;;;;;18.34;95.70;98004.97;5026743;28;20234;-65
2021/06/23 04:54:15;;;;;;;99.40;33.50;;;;;;;18.56;93.75;98013.00;5026765;28;20229;-66
2021/06/23 04:56:41;;;;;;;100.70;33.55;;;;;;;18.63;93.95;98005.50;5025604;28;20237;-66
2021/06/23 04:59:08;;;;;;;103.15;32.83;;;;;;;18.81;92.06;98013.88;5026195;28;20222;-66
2021/06/23 05:01:36;;;;;;;204.02;47.38;;;;;;;18.45;95.46;98021.75;5025749;28;20250;-65
2021/06/23 05:04:02;;;;;;;77.25;35.92;;;;;;;18.23;97.51;98019.81;5024403;28;20206;-66
2021/06/23 05:06:29;;;;;;;64.47;31.77;;;;;;;18.21;96.83;98021.69;5029768;28;20238;-66
2021/06/23 05:08:56;;;;;;;86.47;31.65;;;;;;;18.31;95.68;98032.47;5029979;28;20222;-66
2021/06/23 05:11:22;;;;;;;77.70;28.15;;;;;;;18.74;94.49;98029.31;5028347;28;20238;-66
2021/06/23 05:13:49;;;;;;;96.40;33.65;;;;;;;18.42;97.03;98035.16;5030214;28;20245;-65
2021/06/23 05:16:17;;;;;;;88.68;34.40;;;;;;;18.65;95.58;98046.66;5030933;28;20244;-65
2021/06/23 05:18:45;;;;;;;81.32;33.15;;;;;;;18.39;98.00;98055.66;5033711;28;20721;-66
2021/06/23 05:21:11;;;;;;;81.15;32.85;;;;;;;18.15;100.00;98061.75;5033133;28;20239;-66
2021/06/23 05:23:41;;;;;;;78.53;34.67;;;;;;;18.07;100.00;98050.91;5032613;28;21007;-66
2021/06/23 05:26:07;;;;;;;79.93;35.80;;;;;;;18.03;100.00;98049.41;5033191;28;20922;-65
2021/06/23 05:28:34;;;;;;;68.47;31.63;;;;;;;18.28;98.13;98049.34;5033749;28;20226;-65
2021/06/23 05:31:00;;;;;;;80.45;34.55;;;;;;;18.29;97.29;98040.47;5031520;28;20707;-65
2021/06/23 05:33:27;;;;;;;74.90;37.45;;;;;;;18.22;98.53;98043.69;5030137;28;20249;-65
2021/06/23 05:35:55;;;;;;;92.13;43.97;;;;;;;18.14;98.66;98052.16;5031836;28;20960;-66
2021/06/23 05:38:21;;;;;;;86.72;41.70;;;;;;;18.06;98.84;98051.84;5034682;28;20221;-65
2021/06/23 05:40:48;;;;;;;82.00;35.80;;;;;;;18.21;98.60;98049.91;5032423;28;20245;-66
2021/06/23 05:43:15;;;;;;;94.40;36.67;;;;;;;18.01;100.00;98056.59;5034971;28;20242;-65
2021/06/23 05:45:41;;;;;;;87.20;42.00;;;;;;;18.11;99.83;98047.09;5031856;28;20231;-65
2021/06/23 05:48:09;;;;;;;76.80;34.40;;;;;;;18.15;98.86;98053.00;5030195;28;20215;-65
2021/06/23 05:50:36;;;;;;;82.22;42.47;;;;;;;18.35;97.57;98059.50;5034987;28;20232;-65
2021/06/23 05:53:04;;;;;;;82.75;45.22;;;;;;;18.00;100.00;98060.19;5052677;28;20233;-65
2021/06/23 05:55:30;;;;;;;79.97;44.45;;;;;;;17.88;100.00;98062.75;5049004;28;20621;-67
2021/06/23 05:57:57;;;;;;;91.20;48.03;;;;;;;17.79;100.00;98065.13;5033584;28;20218;-67
2021/06/23 06:00:25;;;;;;;97.03;43.67;;;;;;;17.88;100.00;98062.75;5033457;28;20249;-65
2021/06/23 06:02:52;;;;;;;97.10;44.83;;;;;;;17.79;100.00;98068.63;5033035;28;20735;-65
2021/06/23 06:05:19;;;;;;;87.07;39.25;;;;;;;17.81;100.00;98072.00;5032846;28;20221;-66
2021/06/23 06:07:45;;;;;;;75.80;34.78;;;;;;;17.83;100.00;98075.38;5033144;28;20233;-65
2021/06/23 06:10:14;;;;;;;84.70;25.83;;;;;;;17.98;100.00;98078.78;5032464;28;20222;-65
2021/06/23 06:12:41;;;;;;;73.72;22.67;;;;;;;18.15;100.00;98080.22;5030079;28;20231;-65
2021/06/23 06:15:08;;;;;;;76.47;26.98;;;;;;;18.18;100.00;98080.00;5029185;28;20234;-66
2021/06/23 06:17:37;;;;;;;76.20;29.25;;;;;;;18.18;99.07;98082.66;5031567;28;20706;-68
2021/06/23 06:20:05;;;;;;;77.60;31.50;;;;;;;18.16;99.88;98086.34;5030021;28;20277;-66
2021/06/23 06:22:32;;;;;;;93.90;28.92;;;;;;;18.52;100.00;98088.16;5032294;28;20239;-67
2021/06/23 06:24:59;;;;;;;68.85;23.02;;;;;;;19.05;100.00;98079.94;5031669;28;20222;-65
2021/06/23 06:27:27;;;;;;;72.53;25.42;;;;;;;19.16;98.69;98071.19;5032289;28;20246;-65
2021/06/23 06:29:54;;;;;;;70.28;27.30;;;;;;;19.19;96.60;98071.81;5035008;28;20233;-65
2021/06/23 06:32:20;;;;;;;74.65;29.25;;;;;;;18.86;96.99;98077.81;5031625;28;20245;-65
2021/06/23 06:34:47;;;;;;;86.97;34.40;;;;;;;18.92;97.11;98069.41;5033794;28;20221;-66
2021/06/23 06:37:14;;;;;;;91.90;35.55;;;;;;;19.10;95.00;98071.63;5032635;28;20241;-65
2021/06/23 06:39:42;;;;;;;68.75;27.75;;;;;;;19.22;94.34;98076.00;5033504;28;20218;-66
2021/06/23 06:42:08;;;;;;;70.10;29.08;;;;;;;19.23;95.07;98080.34;5030268;28;20242;-65
2021/06/23 06:44:36;;;;;;;76.50;31.23;;;;;;;19.03;94.60;98092.41;5032926;28;20265;-65
2021/06/23 06:47:03;;;;;;;75.05;35.67;;;;;;;18.92;96.76;98095.84;5033805;28;20245;-65
2021/06/23 06:49:30;;;;;;;86.82;48.85;;;;;;;19.06;94.27;98100.13;5030266;28;20265;-65
2021/06/23 06:51:58;;;;;;;84.30;33.92;;;;;;;18.65;97.81;98104.78;5031749;28;20288;-65
2021/06/23 06:54:25;;;;;;;78.57;36.10;;;;;;;18.70;99.15;98107.13;5034651;28;20267;-65
2021/06/23 06:56:51;;;;;;;91.32;34.47;;;;;;;18.75;93.46;98112.06;5031912;28;20265;-65
2021/06/23 06:59:19;;;;;;;88.78;46.58;;;;;;;18.71;93.43;98113.25;5031983;28;20252;-66
2021/06/23 07:01:47;;;;;;;116.40;47.65;;;;;;;18.48;96.16;98110.47;5029557;28;20305;-65
2021/06/23 07:04:15;;;;;;;96.15;36.75;;;;;;;18.34;100.00;98116.72;5028100;28;20229;-65
2021/06/23 07:06:41;;;;;;;83.10;37.90;;;;;;;18.38;99.75;98119.97;5032304;28;20870;-65
2021/06/23 07:09:08;;;;;;;80.25;39.88;;;;;;;18.63;98.93;98125.19;5034352;28;20233;-65
2021/06/23 07:11:35;;;;;;;103.88;41.70;;;;;;;18.62;99.22;98135.91;5030865;28;20237;-65
2021/06/23 07:14:01;;;;;;;85.70;34.15;;;;;;;18.58;98.38;98135.28;5032172;28;20243;-65
2021/06/23 07:16:28;;;;;;;77.05;40.45;;;;;;;18.81;97.00;98130.16;5031711;28;20238;-65
2021/06/23 07:18:56;;;;;;;99.10;45.53;;;;;;;18.81;96.58;98141.56;5030517;28;20214;-65
2021/06/23 07:21:23;;;;;;;117.68;71.00;;;;;;;18.58;98.65;98140.56;5029397;28;20235;-65
2021/06/23 07:23:53;;;;;;;87.05;39.10;;;;;;;18.65;100.00;98136.50;5030488;28;20262;-65
2021/06/23 07:26:19;;;;;;;85.50;27.70;;;;;;;18.65;100.00;98133.84;5032198;28;20238;-66
2021/06/23 07:28:49;;;;;;;90.28;51.83;;;;;;;18.74;100.00;98134.16;5031024;28;20746;-65
2021/06/23 07:31:20;;;;;;;103.35;55.97;;;;;;;18.77;98.30;98144.53;5030511;28;20272;-66
2021/06/23 07:33:53;;;;;;;79.13;31.15;;;;;;;18.88;97.47;98141.97;5032333;28;20365;-65
2021/06/23 07:36:35;;;;;;;73.03;24.20;;;;;;;19.16;96.86;98134.66;5029172;28;20234;-66
2021/06/23 07:39:02;;;;;;;75.38;25.65;;;;;;;19.21;97.30;98137.81;5028470;28;20211;-65
2021/06/23 07:41:29;;;;;;;72.55;18.33;;;;;;;19.65;92.83;98133.63;5028746;28;20291;-65
2021/06/23 07:43:56;;;;;;;65.78;23.10;;;;;;;20.15;88.92;98130.72;5031836;28;20234;-65
2021/06/23 07:46:23;;;;;;;72.93;21.65;;;;;;;20.15;88.49;98128.06;5032086;28;20242;-65
2021/06/23 07:48:51;;;;;;;104.07;57.83;;;;;;;19.96;89.26;98131.28;5032332;28;20695;-65
2021/06/23 07:51:21;;;;;;;89.82;35.90;;;;;;;19.65;90.68;98133.63;5030662;28;20241;-66
2021/06/23 07:54:13;;;;;;;75.38;23.23;;;;;;;20.00;89.51;98140.69;5031499;28;20321;-66
2021/06/23 07:56:55;;;;;;;66.60;19.05;;;;;;;20.34;87.13;98141.53;5031885;28;20245;-65
2021/06/23 08:10:36;;;;;;;68.00;27.25;;;;;;;20.56;85.23;98153.91;5021828;28;20613;-66
2021/06/23 08:13:02;;;;;;;63.50;22.70;;;;;;;20.79;85.30;98153.94;5029772;28;20234;-65
2021/06/23 08:15:31;;;;;;;82.35;61.60;;;;;;;20.78;84.45;98150.41;5031504;28;20249;-66
2021/06/23 08:17:58;;;;;;;81.50;35.45;;;;;;;20.69;86.92;98148.50;5030424;28;20243;-66
2021/06/23 08:20:25;;;;;;;55.90;22.58;;;;;;;21.08;82.60;98146.28;5029163;28;20276;-66
2021/06/23 08:22:52;;;;;;;56.50;21.45;;;;;;;21.15;82.02;98154.53;5030831;28;20646;-65
2021/06/23 08:25:20;;;;;;;82.22;39.10;;;;;;;21.37;80.32;98154.44;5031328;28;20233;-65
2021/06/23 08:27:49;;;;;;;83.82;34.00;;;;;;;20.68;83.10;98151.31;5031938;28;20341;-66
2021/06/23 08:30:16;;;;;;;87.60;44.53;;;;;;;20.33;84.49;98152.25;5029692;28;20215;-65
2021/06/23 08:32:43;;;;;;;92.38;53.63;;;;;;;20.21;89.02;98157.53;5031910;28;20608;-66
2021/06/23 08:35:11;;;;;;;77.72;28.98;;;;;;;20.04;91.19;98160.66;5028918;28;20284;-66
2021/06/23 08:37:39;;;;;;;82.95;47.72;;;;;;;20.01;93.17;98167.03;5030840;28;20225;-65
2021/06/23 08:40:07;;;;;;;80.63;36.80;;;;;;;19.94;91.38;98165.84;5029981;28;20225;-66
2021/06/23 08:42:34;;;;;;;98.93;63.47;;;;;;;19.89;89.67;98167.97;5030507;28;20242;-65
2021/06/23 08:45:03;;;;;;;88.32;62.35;;;;;;;19.80;90.26;98166.88;5030613;28;20222;-66
2021/06/23 08:48:05;;;;;;;95.07;68.70;;;;;;;20.17;90.38;98173.81;5069701;28;20530;-65
2021/06/23 08:50:34;;;;;;;80.80;42.67;;;;;;;19.98;91.48;98169.94;5051271;28;20244;-65
2021/06/23 08:53:00;;;;;;;72.63;28.20;;;;;;;19.91;90.18;98158.13;5027910;28;20282;-65
2021/06/23 08:55:27;;;;;;;90.15;42.90;;;;;;;20.03;88.96;98151.88;5031053;28;20247;-65
2021/06/23 08:57:53;;;;;;;92.20;62.15;;;;;;;20.25;87.92;98149.34;5048738;28;20220;-65
2021/06/23 09:00:22;;;;;;;95.43;56.78;;;;;;;20.29;88.47;98145.50;5047173;28;20213;-65
2021/06/23 09:02:49;;;;;;;87.38;60.42;;;;;;;20.53;85.80;98142.72;5049720;28;20270;-65
2021/06/23 09:05:18;;;;;;;100.63;65.75;;;;;;;20.55;83.76;98141.66;5045683;28;20587;-65
2021/06/23 09:07:48;;;;;;;96.78;69.40;;;;;;;20.50;85.22;98135.88;5047122;28;20238;-65
2021/06/23 09:10:34;;;;;;;92.85;60.90;;;;;;;21.17;82.49;98142.00;5048173;28;20326;-65
2021/06/23 09:13:15;;;;;;;89.20;57.60;;;;;;;21.62;80.27;98130.38;5045370;28;20230;-65
2021/06/23 09:15:42;;;;;;;89.22;62.30;;;;;;;21.67;80.46;98138.78;5048178;28;20242;-65
2021/06/23 09:18:10;;;;;;;87.28;61.55;;;;;;;21.67;78.84;98134.34;5046433;28;20214;-65
2021/06/23 09:20:38;;;;;;;76.28;57.70;;;;;;;21.86;78.57;98130.09;5046924;28;20276;-65
2021/06/23 09:23:04;;;;;;;82.55;66.03;;;;;;;22.19;77.09;98122.88;5045341;28;20249;-65
2021/06/23 09:25:34;;;;;;;107.43;85.35;;;;;;;22.01;76.54;98122.63;5047380;28;20716;-65
2021/06/23 09:28:02;;;;;;;85.70;72.35;;;;;;;22.23;77.00;98125.09;5045076;28;20286;-65
2021/06/23 09:30:31;;;;;;;101.03;85.30;;;;;;;22.73;74.36;98131.47;5046845;28;20234;-65
2021/06/23 09:33:18;;;;;;;85.88;63.72;;;;;;;22.82;73.98;98135.97;5046945;28;20237;-65
2021/06/23 09:35:48;;;;;;;77.68;40.45;;;;;;;22.86;73.82;98138.19;5048097;28;20663;-66
2021/06/23 09:38:33;;;;;;;85.13;38.08;;;;;;;22.34;77.80;98126.88;5046455;28;20217;-65
2021/06/23 09:41:00;;;;;;;68.57;26.23;;;;;;;22.13;79.38;98125.06;5045235;28;20241;-65
2021/06/23 09:43:35;;;;;;;76.57;35.40;;;;;;;21.89;78.23;98124.50;5047011;28;20287;-64
2021/06/23 09:46:12;;;;;;;72.30;24.50;;;;;;;22.42;76.69;98129.69;5044925;28;20238;-65
2021/06/23 09:48:39;;;;;;;75.63;38.10;;;;;;;22.51;77.05;98134.19;5044294;28;20272;-65
2021/06/23 09:51:15;;;;;;;75.80;41.88;;;;;;;22.31;81.21;98128.00;5046668;28;20249;-65
2021/06/23 09:53:42;;;;;;;70.05;43.80;;;;;;;22.48;79.61;98129.16;5045852;28;20239;-65
2021/06/23 09:56:30;;;;;;;84.15;51.13;;;;;;;22.51;77.81;98128.03;5045747;28;20244;-65
2021/06/23 09:58:57;;;;;;;75.47;35.38;;;;;;;22.41;77.83;98133.34;5037433;28;20229;-65
2021/06/23 10:01:24;;;;;;;80.35;29.83;;;;;;;22.34;77.15;98126.88;5031890;28;20249;-65
2021/06/23 10:03:56;;;;;;;76.20;26.92;;;;;;;22.41;76.97;98128.00;5032662;28;20242;-65
2021/06/23 10:06:25;;;;;;;72.78;30.15;;;;;;;22.37;75.43;98137.25;5032125;28;20296;-65
2021/06/23 10:08:53;;;;;;;72.85;21.20;;;;;;;22.02;80.64;98127.81;5029177;28;20229;-65
2021/06/23 10:11:31;;;;;;;62.45;24.25;;;;;;;21.84;79.85;98132.06;5031996;28;20242;-65
2021/06/23 10:13:58;;;;;;;67.20;23.02;;;;;;;22.50;77.18;98132.53;5028402;28;20248;-66
2021/06/23 10:16:25;;;;;;;69.07;25.45;;;;;;;22.43;79.23;98142.00;5033400;28;20705;-65
2021/06/23 10:18:53;;;;;;;76.45;22.17;;;;;;;22.58;74.71;98139.81;5034081;28;20310;-65
2021/06/23 10:21:20;;;;;;;83.55;25.80;;;;;;;22.81;74.32;98139.59;5034262;28;20244;-65
2021/06/23 10:23:48;;;;;;;68.75;28.85;;;;;;;22.74;73.03;98139.31;5032508;28;20764;-65
2021/06/23 10:26:15;;;;;;;70.45;23.25;;;;;;;22.91;73.01;98140.44;5032959;28;21042;-65
2021/06/23 10:28:41;;;;;;;53.55;24.23;;;;;;;22.85;76.00;98130.38;5032905;28;20225;-65
2021/06/23 10:31:10;;;;;;;65.93;34.75;;;;;;;22.99;72.96;98129.13;5031171;28;20249;-65
2021/06/23 10:33:39;;;;;;;71.22;41.47;;;;;;;23.06;72.25;98127.63;5029004;28;20241;-65
2021/06/23 10:36:07;;;;;;;67.00;40.78;;;;;;;23.18;72.97;98131.84;5033602;28;20619;-65
2021/06/23 10:38:34;;;;;;;56.03;15.77;;;;;;;23.62;70.49;98124.25;5037293;28;20238;-65
2021/06/23 10:41:02;;;;;;;52.85;15.68;;;;;;;23.73;70.10;98125.06;5032413;28;20246;-68
2021/06/23 10:43:28;;;;;;;58.38;18.38;;;;;;;24.08;68.57;98128.94;5030396;28;20623;-68
2021/06/23 10:45:55;;;;;;;78.10;45.80;;;;;;;24.31;67.62;98116.09;5031639;28;20247;-67
2021/06/23 10:48:21;;;;;;;61.58;16.80;;;;;;;24.30;68.07;98123.25;5031930;28;20616;-68
2021/06/23 10:50:48;;;;;;;71.45;23.63;;;;;;;24.13;67.60;98113.34;5032828;28;20237;-67
2021/06/23 10:53:34;;;;;;;68.15;24.73;;;;;;;24.34;67.29;98103.31;5030122;28;20241;-67
2021/06/23 10:56:04;;;;;;;57.20;19.70;;;;;;;24.36;66.72;98096.00;5032616;28;20242;-68
2021/06/23 10:58:32;;;;;;;64.10;46.72;;;;;;;24.50;67.17;98088.47;5030096;28;21004;-68
2021/06/23 11:01:10;;;;;;;71.68;46.78;;;;;;;24.28;68.35;98087.91;5031634;28;20238;-68
2021/06/23 11:03:59;;;;;;;66.45;42.78;;;;;;;24.54;65.98;98087.25;5033189;28;20808;-68
2021/06/23 11:06:39;;;;;;;76.95;42.22;;;;;;;24.28;67.96;98085.25;5028765;28;20249;-68
2021/06/23 11:09:24;;;;;;;64.93;37.45;;;;;;;24.40;66.35;98088.53;5031891;28;20214;-68
2021/06/23 11:11:52;;;;;;;69.45;20.23;;;;;;;24.44;65.93;98082.78;5030751;28;20262;-67
2021/06/23 11:14:20;;;;;;;66.85;18.05;;;;;;;23.84;65.67;98090.31;5033428;28;20226;-68
2021/06/23 11:16:47;;;;;;;69.07;19.30;;;;;;;23.89;66.03;98088.03;5032057;28;20235;-68
2021/06/23 11:19:14;;;;;;;67.85;25.38;;;;;;;23.95;64.75;98082.16;5032077;28;20215;-67
2021/06/23 11:21:41;;;;;;;76.78;17.00;;;;;;;24.23;68.69;98076.84;5028053;28;20235;-65
2021/06/23 11:24:13;;;;;;;68.97;20.25;;;;;;;24.41;66.30;98072.41;5033771;28;20218;-65
2021/06/23 11:26:57;;;;;;;58.00;21.75;;;;;;;24.95;63.98;98077.00;5032869;28;20230;-65
2021/06/23 11:29:37;;;;;;;68.22;34.25;;;;;;;24.86;62.81;98072.56;5031259;28;20910;-65
2021/06/23 11:32:06;;;;;;;78.97;57.08;;;;;;;24.86;67.22;98073.41;5028822;28;20327;-65